Time;durP1;ratioP1;P1;durP2;ratioP2;P2;SDS_P1;SDS_P2;PMS_P1;PMS_P2;Temp;Humidity;BMP_temperature;BMP_pressure;BME280_temperature;BME280_humidity;BME280_pressure;Samples;Min_cycle;Max_cycle;Signal;HPM_P1;HPM_P2
2022/09/01 00:01:51;;;;;;;38.93;35.13;;;15.10;99.90;;;;;;5011628;28;20458;-73
2022/09/01 00:04:21;;;;;;;36.23;32.40;;;15.10;99.90;;;;;;5011195;28;20593;-73
2022/09/01 00:06:48;;;;;;;37.67;34.00;;;15.10;99.90;;;;;;5006616;28;20438;-72
2022/09/01 00:09:16;;;;;;;33.30;30.10;;;15.10;99.90;;;;;;5009455;28;20451;-73
2022/09/01 00:11:44;;;;;;;33.40;30.40;;;15.10;99.90;;;;;;5008406;28;20465;-73
2022/09/01 00:14:10;;;;;;;29.73;26.80;;;15.10;99.90;;;;;;5011382;28;20580;-73
2022/09/01 00:16:37;;;;;;;28.17;25.40;;;15.20;99.90;;;;;;5006120;28;20437;-73
2022/09/01 00:19:04;;;;;;;30.30;27.00;;;15.00;99.90;;;;;;5010844;28;20986;-73
2022/09/01 00:21:38;;;;;;;27.97;25.27;;;14.90;99.90;;;;;;5019263;28;20514;-73
2022/09/01 00:24:05;;;;;;;26.87;24.47;;;15.00;99.90;;;;;;5011534;28;20448;-72
2022/09/01 00:26:30;;;;;;;31.67;27.33;;;15.00;99.90;;;;;;5010829;28;20535;-72
2022/09/01 00:28:56;;;;;;;30.10;26.87;;;14.90;99.90;;;;;;5010698;28;20469;-73
2022/09/01 00:31:22;;;;;;;32.20;29.20;;;14.90;99.90;;;;;;5010848;28;20203;-73
2022/09/01 00:33:48;;;;;;;32.00;28.30;;;14.90;99.90;;;;;;5011555;28;20179;-73
2022/09/01 00:36:16;;;;;;;33.53;30.20;;;14.80;99.90;;;;;;5011619;28;20246;-73
2022/09/01 00:38:41;;;;;;;28.97;26.40;;;14.80;99.90;;;;;;5010361;28;20500;-71
2022/09/01 00:41:08;;;;;;;31.03;28.13;;;14.70;99.90;;;;;;5011292;28;20981;-73
2022/09/01 00:43:39;;;;;;;26.50;24.20;;;14.70;99.90;;;;;;5010429;28;20622;-72
2022/09/01 00:46:07;;;;;;;31.10;28.20;;;14.70;99.90;;;;;;5011344;28;20438;-73
2022/09/01 00:48:33;;;;;;;28.17;25.23;;;14.60;99.90;;;;;;5010256;28;20814;-73
2022/09/01 00:50:59;;;;;;;28.63;25.83;;;14.60;99.90;;;;;;5018367;28;20530;-73
2022/09/01 00:53:25;;;;;;;32.07;28.70;;;14.60;99.90;;;;;;5010263;28;20186;-73
2022/09/01 00:55:51;;;;;;;29.40;26.80;;;14.60;99.90;;;;;;5013412;28;20965;-72
2022/09/01 00:58:17;;;;;;;30.63;27.63;;;14.60;99.90;;;;;;5011220;28;20210;-73
2022/09/01 01:00:48;;;;;;;30.43;27.40;;;14.60;99.90;;;;;;5010878;28;20693;-73
2022/09/01 01:03:14;;;;;;;33.53;30.33;;;14.50;99.90;;;;;;5009748;28;20520;-72
2022/09/01 01:05:52;;;;;;;29.97;26.87;;;14.70;99.90;;;;;;5008464;28;20433;-72
2022/09/01 01:08:26;;;;;;;31.40;28.20;;;14.70;99.90;;;;;;5008854;28;20473;-72
2022/09/01 01:10:51;;;;;;;31.83;28.80;;;14.70;99.90;;;;;;5010956;28;20507;-73
2022/09/01 01:13:18;;;;;;;31.17;28.17;;;14.80;99.90;;;;;;5010008;28;20479;-73
2022/09/01 01:15:44;;;;;;;30.73;27.80;;;14.80;99.90;;;;;;5009165;28;20236;-73
2022/09/01 01:18:11;;;;;;;31.37;28.50;;;14.80;99.90;;;;;;5009762;28;20965;-72
2022/09/01 01:23:35;;;;;;;28.37;25.67;;;14.80;99.90;;;;;;5009844;28;20499;-73
2022/09/01 01:26:03;;;;;;;31.83;28.50;;;14.70;99.90;;;;;;5010694;28;21123;-73
2022/09/01 01:28:35;;;;;;;27.93;25.33;;;14.70;99.90;;;;;;5005008;28;20528;-74
2022/09/01 01:31:11;;;;;;;27.00;24.50;;;14.60;99.90;;;;;;5009278;28;20488;-73
2022/09/01 01:33:43;;;;;;;27.43;24.93;;;14.60;99.90;;;;;;5010150;28;20440;-73
2022/09/01 01:36:12;;;;;;;27.93;25.10;;;14.60;99.90;;;;;;5010590;28;20437;-73
2022/09/01 01:38:41;;;;;;;29.70;26.97;;;14.70;99.90;;;;;;5008801;28;20462;-73
2022/09/01 01:41:08;;;;;;;27.27;24.70;;;14.50;99.90;;;;;;5010007;28;20453;-72
2022/09/01 01:43:35;;;;;;;28.93;26.30;;;14.50;99.90;;;;;;5010352;28;20442;-68
2022/09/01 01:46:01;;;;;;;30.00;27.20;;;14.50;99.90;;;;;;5009017;28;20510;-73
2022/09/01 01:48:33;;;;;;;28.10;25.60;;;14.40;99.90;;;;;;5009513;28;20440;-73
2022/09/01 01:51:00;;;;;;;28.03;24.10;;;14.50;99.90;;;;;;5009942;28;20489;-73
2022/09/01 01:53:26;;;;;;;27.30;24.60;;;14.40;99.90;;;;;;5010102;28;20445;-73
2022/09/01 01:55:52;;;;;;;29.77;26.87;;;14.40;99.90;;;;;;5009085;28;20443;-73
2022/09/01 01:58:19;;;;;;;29.60;26.90;;;14.40;99.90;;;;;;5007665;28;20560;-73
2022/09/01 02:00:47;;;;;;;32.20;29.23;;;14.30;99.90;;;;;;5008727;28;20870;-73
2022/09/01 02:03:18;;;;;;;29.47;26.47;;;14.30;99.90;;;;;;5009645;28;20437;-72
2022/09/01 02:05:46;;;;;;;29.70;27.00;;;14.30;99.90;;;;;;5010250;28;20930;-68
2022/09/01 02:08:14;;;;;;;27.47;24.67;;;14.30;99.90;;;;;;5003090;28;21059;-73
2022/09/01 02:10:43;;;;;;;29.23;26.63;;;14.30;99.90;;;;;;5010248;28;20485;-73
2022/09/01 02:13:15;;;;;;;31.07;27.73;;;14.40;99.90;;;;;;5008599;28;20433;-72
2022/09/01 02:15:52;;;;;;;29.90;27.03;;;14.50;99.90;;;;;;5010174;28;20441;-73
2022/09/01 02:18:34;;;;;;;26.20;23.80;;;14.50;99.90;;;;;;5005168;28;20500;-70
2022/09/01 02:21:00;;;;;;;25.90;23.10;;;14.50;99.90;;;;;;5008351;28;20460;-73
2022/09/01 02:23:26;;;;;;;28.93;26.13;;;14.40;99.90;;;;;;5013749;28;20464;-73
2022/09/01 02:25:55;;;;;;;31.10;28.20;;;14.40;99.90;;;;;;5019439;28;20439;-69
2022/09/01 02:28:22;;;;;;;28.10;25.47;;;14.40;99.90;;;;;;5011680;28;20527;-71
2022/09/01 02:30:56;;;;;;;31.00;28.00;;;14.50;99.90;;;;;;5014293;28;20527;-73
2022/09/01 02:33:22;;;;;;;30.30;27.30;;;14.50;99.90;;;;;;5014137;28;20475;-73
2022/09/01 02:35:50;;;;;;;31.40;28.30;;;14.60;99.90;;;;;;5008143;28;20439;-73
2022/09/01 02:38:16;;;;;;;31.70;28.80;;;14.60;99.90;;;;;;5012971;28;20481;-73
2022/09/01 02:40:44;;;;;;;30.13;27.10;;;14.50;99.90;;;;;;5024580;28;20467;-73
2022/09/01 02:43:10;;;;;;;29.80;27.03;;;14.40;99.90;;;;;;5016947;28;20825;-73
2022/09/01 02:45:37;;;;;;;30.97;27.77;;;14.40;99.90;;;;;;5012606;28;20434;-71
2022/09/01 02:48:08;;;;;;;27.10;24.43;;;14.40;99.90;;;;;;5012217;28;21032;-73
2022/09/01 02:50:35;;;;;;;26.73;24.30;;;14.20;99.90;;;;;;5012396;28;20548;-73
2022/09/01 02:53:00;;;;;;;28.87;26.10;;;14.20;99.90;;;;;;5012711;28;20441;-74
2022/09/01 02:55:26;;;;;;;32.97;29.67;;;14.20;99.90;;;;;;5011945;28;20444;-71
2022/09/01 02:57:55;;;;;;;32.77;29.53;;;14.10;99.90;;;;;;5013382;28;20668;-71
2022/09/01 03:00:27;;;;;;;28.93;26.07;;;14.00;99.90;;;;;;5012173;28;20199;-73
2022/09/01 03:02:56;;;;;;;32.10;28.90;;;14.00;99.90;;;;;;5018975;28;20441;-73
2022/09/01 03:05:28;;;;;;;33.27;30.17;;;14.00;99.90;;;;;;5011436;28;20434;-72
2022/09/01 03:07:59;;;;;;;32.80;29.57;;;14.00;99.90;;;;;;5010397;28;20430;-73
2022/09/01 03:10:31;;;;;;;30.93;27.90;;;14.00;99.90;;;;;;5012296;28;20464;-72
2022/09/01 03:13:02;;;;;;;31.10;27.90;;;14.00;99.90;;;;;;5013572;28;20519;-72
2022/09/01 03:15:29;;;;;;;31.20;27.83;;;13.90;99.90;;;;;;5012873;28;20433;-73
2022/09/01 03:17:56;;;;;;;33.03;29.83;;;14.00;99.90;;;;;;5012397;28;20466;-73
2022/09/01 03:20:22;;;;;;;36.17;32.10;;;13.90;99.90;;;;;;5012025;28;20457;-73
2022/09/01 03:22:50;;;;;;;32.40;29.10;;;13.90;99.90;;;;;;5012794;28;20445;-73
2022/09/01 03:25:16;;;;;;;29.93;27.00;;;14.00;99.90;;;;;;5012414;28;20229;-72
2022/09/01 03:27:41;;;;;;;30.47;27.37;;;13.90;99.90;;;;;;5012125;28;20433;-74
2022/09/01 03:30:07;;;;;;;29.77;26.90;;;13.90;99.90;;;;;;5012579;28;20210;-74
2022/09/01 03:32:33;;;;;;;32.63;29.43;;;13.80;99.90;;;;;;5009981;28;20204;-73
2022/09/01 03:34:59;;;;;;;32.60;29.30;;;14.00;99.90;;;;;;5012559;28;20951;-74
2022/09/01 03:37:25;;;;;;;33.33;29.87;;;13.80;99.90;;;;;;5021129;28;20547;-73
2022/09/01 03:39:51;;;;;;;31.80;28.67;;;13.70;99.90;;;;;;5010193;28;20558;-73
2022/09/01 03:42:21;;;;;;;32.67;29.43;;;13.80;99.90;;;;;;5009987;28;20445;-73
2022/09/01 03:44:48;;;;;;;32.67;28.57;;;13.70;99.90;;;;;;5013396;28;20170;-73
2022/09/01 03:47:14;;;;;;;31.27;28.17;;;13.70;99.90;;;;;;5013056;28;20434;-72
2022/09/01 03:49:42;;;;;;;31.43;28.20;;;13.70;99.90;;;;;;5011500;28;20447;-74
2022/09/01 03:52:12;;;;;;;32.40;29.13;;;13.70;99.90;;;;;;5005252;28;20482;-73
2022/09/01 03:54:37;;;;;;;32.17;29.07;;;13.70;99.90;;;;;;5010032;28;20434;-73
2022/09/01 03:57:05;;;;;;;29.87;26.67;;;13.70;99.90;;;;;;5011622;28;20456;-74
2022/09/01 03:59:31;;;;;;;30.43;27.37;;;13.70;99.90;;;;;;5012186;28;20214;-73
2022/09/01 04:01:58;;;;;;;31.10;27.97;;;13.60;99.90;;;;;;5012361;28;20468;-72
2022/09/01 04:04:24;;;;;;;33.07;29.50;;;13.60;99.90;;;;;;5012312;28;20521;-73
2022/09/01 04:06:50;;;;;;;34.43;29.00;;;13.50;99.90;;;;;;5024387;28;20473;-73
2022/09/01 04:09:15;;;;;;;31.93;28.63;;;13.50;99.90;;;;;;5027620;28;20449;-71
2022/09/01 04:11:44;;;;;;;32.93;29.47;;;13.50;99.90;;;;;;5027303;28;20198;-73
2022/09/01 04:14:11;;;;;;;38.33;34.00;;;13.50;99.90;;;;;;5026627;28;20189;-69
2022/09/01 04:19:26;;;;;;;35.17;31.47;;;13.50;99.90;;;;;;5028130;28;20471;-72
2022/09/01 04:21:58;;;;;;;38.23;32.30;;;13.60;99.90;;;;;;5033217;28;20480;-74
2022/09/01 04:24:29;;;;;;;36.97;33.23;;;13.50;99.90;;;;;;5027117;28;20437;-73
2022/09/01 04:26:57;;;;;;;32.70;29.33;;;13.60;99.90;;;;;;5025142;28;20504;-73
2022/09/01 04:29:26;;;;;;;29.47;26.57;;;13.60;99.90;;;;;;5012069;28;21152;-73
2022/09/01 04:31:52;;;;;;;29.53;26.77;;;13.50;99.90;;;;;;5018102;28;20499;-72
2022/09/01 04:34:21;;;;;;;31.03;26.60;;;13.50;99.90;;;;;;5020598;28;20444;-71
2022/09/01 04:36:47;;;;;;;31.17;27.97;;;13.50;99.90;;;;;;5018499;28;20543;-73
2022/09/01 04:39:13;;;;;;;32.40;29.20;;;13.40;99.90;;;;;;5023923;28;20472;-73
2022/09/01 04:41:42;;;;;;;31.43;28.37;;;13.40;99.90;;;;;;5020465;28;20523;-72
2022/09/01 04:44:08;;;;;;;34.40;30.97;;;13.40;99.90;;;;;;5021104;28;20639;-73
2022/09/01 04:46:37;;;;;;;32.70;29.67;;;13.40;99.90;;;;;;5023418;28;20528;-72
2022/09/01 04:49:08;;;;;;;34.27;28.67;;;13.50;99.90;;;;;;5021778;28;20802;-73
2022/09/01 04:51:37;;;;;;;28.03;25.37;;;13.50;99.90;;;;;;5016970;28;20572;-73
2022/09/01 04:54:06;;;;;;;29.83;27.00;;;13.60;99.90;;;;;;5021043;28;20452;-73
2022/09/01 04:56:35;;;;;;;28.00;25.20;;;13.60;99.90;;;;;;5025685;28;20648;-73
2022/09/01 04:59:01;;;;;;;27.57;24.87;;;13.60;99.90;;;;;;5015792;28;20476;-72
2022/09/01 05:01:27;;;;;;;27.77;25.03;;;13.60;99.90;;;;;;5018952;28;20457;-73
2022/09/01 05:04:00;;;;;;;29.60;26.57;;;13.60;99.90;;;;;;5027230;28;20444;-72
2022/09/01 05:06:26;;;;;;;27.77;25.10;;;13.60;99.90;;;;;;5023222;28;20285;-73
2022/09/01 05:08:52;;;;;;;29.33;26.33;;;13.70;99.90;;;;;;5017656;28;20503;-73
2022/09/01 05:11:18;;;;;;;31.57;28.27;;;13.70;99.90;;;;;;5020769;28;20882;-73
2022/09/01 05:13:48;;;;;;;32.57;29.00;;;13.90;99.90;;;;;;5022116;28;20608;-73
2022/09/01 05:16:18;;;;;;;32.20;29.00;;;13.80;99.90;;;;;;5022045;28;20432;-73
2022/09/01 05:18:46;;;;;;;35.17;30.33;;;13.90;99.90;;;;;;5022490;28;20465;-71
2022/09/01 05:21:14;;;;;;;35.03;31.27;;;13.90;99.90;;;;;;5024043;28;20458;-72
2022/09/01 05:23:40;;;;;;;32.13;28.83;;;14.00;99.90;;;;;;5021951;28;20492;-70
2022/09/01 05:26:15;;;;;;;38.57;32.47;;;14.10;99.90;;;;;;5022357;28;20457;-69
2022/09/01 05:28:45;;;;;;;36.03;31.00;;;14.20;99.90;;;;;;5023064;28;20950;-70
2022/09/01 05:31:11;;;;;;;41.63;35.90;;;14.30;99.90;;;;;;5016575;28;20461;-70
2022/09/01 05:33:44;;;;;;;32.43;28.93;;;14.50;99.90;;;;;;5024365;28;20441;-70
2022/09/01 05:36:16;;;;;;;29.50;26.57;;;14.70;99.90;;;;;;5006900;28;20984;-70
2022/09/01 05:38:43;;;;;;;27.77;25.20;;;14.90;99.90;;;;;;5002209;28;20461;-69
2022/09/01 05:41:13;;;;;;;28.47;25.57;;;15.00;99.90;;;;;;5008602;28;20466;-70
2022/09/01 05:43:48;;;;;;;27.57;24.70;;;15.10;99.90;;;;;;5018436;28;20442;-70
2022/09/01 05:46:16;;;;;;;28.27;25.27;;;15.20;99.90;;;;;;5017295;28;20953;-70
2022/09/01 05:48:48;;;;;;;23.13;20.20;;;15.40;99.90;;;;;;5019709;28;20801;-69
2022/09/01 05:51:16;;;;;;;25.50;22.77;;;15.40;99.90;;;;;;5018811;28;20512;-70
2022/09/01 05:53:43;;;;;;;25.70;23.17;;;15.60;99.90;;;;;;5021756;28;20511;-70
2022/09/01 05:56:12;;;;;;;22.50;20.47;;;15.80;99.90;;;;;;5010823;28;20473;-71
2022/09/01 05:58:39;;;;;;;23.80;21.67;;;15.90;99.90;;;;;;5013412;28;20453;-69
2022/09/01 06:01:05;;;;;;;27.33;24.93;;;16.00;99.90;;;;;;5014139;28;20449;-69
2022/09/01 06:03:31;;;;;;;26.27;23.70;;;15.90;99.90;;;;;;5013329;28;20464;-70
2022/09/01 06:06:02;;;;;;;28.30;25.70;;;16.00;99.90;;;;;;5015207;28;20492;-69
2022/09/01 06:08:28;;;;;;;27.03;24.50;;;16.10;99.90;;;;;;5010040;28;20474;-71
2022/09/01 06:10:53;;;;;;;27.53;24.40;;;16.20;99.90;;;;;;5013380;28;20590;-72
2022/09/01 06:13:20;;;;;;;23.07;20.87;;;16.20;99.90;;;;;;5013095;28;20698;-73
2022/09/01 06:15:48;;;;;;;24.93;22.33;;;16.30;99.90;;;;;;5022011;28;20530;-71
2022/09/01 06:18:16;;;;;;;25.83;23.10;;;16.50;99.90;;;;;;5011364;28;20882;-71
2022/09/01 06:20:43;;;;;;;26.57;23.87;;;16.50;99.90;;;;;;5012969;28;20955;-70
2022/09/01 06:23:14;;;;;;;24.67;22.27;;;16.50;99.90;;;;;;5013437;28;20442;-71
2022/09/01 06:25:42;;;;;;;25.40;23.07;;;16.70;99.90;;;;;;5012460;28;20947;-72
2022/09/01 06:28:10;;;;;;;23.50;21.00;;;16.70;99.90;;;;;;5022539;28;20929;-71
2022/09/01 06:30:37;;;;;;;23.90;21.37;;;16.70;99.90;;;;;;5020441;28;20461;-73
2022/09/01 06:33:08;;;;;;;25.63;23.23;;;16.70;99.90;;;;;;5017551;28;20445;-71
2022/09/01 06:35:34;;;;;;;25.53;23.17;;;16.80;99.90;;;;;;5012140;28;20467;-72
2022/09/01 06:38:00;;;;;;;24.87;22.47;;;16.70;99.90;;;;;;5015034;28;20464;-66
2022/09/01 06:40:26;;;;;;;23.00;20.80;;;16.80;99.90;;;;;;5013113;28;20511;-72
2022/09/01 06:42:52;;;;;;;22.97;20.67;;;16.90;99.90;;;;;;5022245;28;20434;-71
2022/09/01 06:45:20;;;;;;;22.17;20.00;;;17.10;99.90;;;;;;5017797;28;20175;-72
2022/09/01 06:47:49;;;;;;;21.87;20.00;;;17.20;99.90;;;;;;5011532;28;20266;-72
2022/09/01 06:50:18;;;;;;;24.40;22.10;;;17.40;99.90;;;;;;5010697;28;21001;-78
2022/09/01 06:52:44;;;;;;;23.53;21.20;;;17.40;99.90;;;;;;5013978;28;20798;-75
2022/09/01 06:55:12;;;;;;;25.90;23.60;;;17.60;99.90;;;;;;5005544;28;20466;-75
2022/09/01 06:57:39;;;;;;;23.30;20.93;;;17.80;99.90;;;;;;5021788;28;20848;-75
2022/09/01 07:00:14;;;;;;;24.00;21.80;;;17.90;99.90;;;;;;5016185;28;20433;-72
2022/09/01 07:02:40;;;;;;;22.80;20.87;;;18.00;99.90;;;;;;5020333;28;20435;-72
2022/09/01 07:05:06;;;;;;;21.43;19.53;;;18.00;99.90;;;;;;5012819;28;20522;-72
2022/09/01 07:07:33;;;;;;;22.03;20.23;;;18.10;99.90;;;;;;5014914;28;20437;-72
2022/09/01 07:09:58;;;;;;;22.77;20.23;;;18.30;99.90;;;;;;5009845;28;20516;-72
2022/09/01 07:12:24;;;;;;;21.80;19.53;;;18.40;99.90;;;;;;5004380;28;20532;-78
2022/09/01 07:14:51;;;;;;;23.03;20.93;;;18.50;99.90;;;;;;5017200;28;20201;-73
2022/09/01 07:17:17;;;;;;;22.83;20.73;;;18.40;99.90;;;;;;5013913;28;20186;-72
2022/09/01 07:19:42;;;;;;;21.27;19.20;;;18.40;99.90;;;;;;5011572;28;20465;-75
2022/09/01 07:22:08;;;;;;;21.33;19.23;;;18.60;99.90;;;;;;5002993;28;20206;-76
2022/09/01 07:24:33;;;;;;;21.83;19.97;;;18.50;99.90;;;;;;5014349;28;20179;-72
2022/09/01 07:26:59;;;;;;;23.60;21.30;;;18.70;99.90;;;;;;5020637;28;20183;-72
2022/09/01 07:29:25;;;;;;;20.77;18.90;;;18.90;99.90;;;;;;5030849;28;20186;-72
2022/09/01 07:31:54;;;;;;;20.50;18.80;;;19.00;99.90;;;;;;5021621;28;20213;-72
2022/09/01 07:34:20;;;;;;;19.83;18.10;;;19.00;99.90;;;;;;5022425;28;20440;-73
2022/09/01 07:36:46;;;;;;;20.13;18.40;;;19.30;99.90;;;;;;5021351;28;20438;-73
2022/09/01 07:39:12;;;;;;;20.30;18.43;;;19.40;99.90;;;;;;5021040;28;20453;-72
2022/09/01 07:41:40;;;;;;;19.53;17.67;;;19.40;99.90;;;;;;5017946;28;20195;-76
2022/09/01 07:44:09;;;;;;;17.50;16.00;;;19.50;99.90;;;;;;5014481;28;20438;-75
2022/09/01 07:46:35;;;;;;;17.67;16.27;;;19.70;99.90;;;;;;5012855;28;20521;-74
2022/09/01 07:49:01;;;;;;;19.30;17.80;;;19.80;99.90;;;;;;5010132;28;20513;-72
2022/09/01 07:51:29;;;;;;;18.53;16.93;;;19.80;99.90;;;;;;5008616;28;20218;-75
2022/09/01 07:53:55;;;;;;;18.17;16.57;;;19.80;99.90;;;;;;5012481;28;20810;-66
2022/09/01 07:56:22;;;;;;;19.73;18.03;;;19.90;99.90;;;;;;5011622;28;20480;-66
2022/09/01 07:58:49;;;;;;;17.37;15.77;;;19.90;99.90;;;;;;5009672;28;20462;-66
2022/09/01 08:01:18;;;;;;;14.90;13.50;;;19.80;99.90;;;;;;5012210;28;20881;-66
2022/09/01 08:03:46;;;;;;;17.33;15.63;;;19.90;99.90;;;;;;5011501;28;20500;-66
2022/09/01 08:06:13;;;;;;;16.63;15.23;;;20.00;99.90;;;;;;5009130;28;20440;-66
2022/09/01 08:08:40;;;;;;;16.33;14.93;;;20.00;99.90;;;;;;5009211;28;20445;-67
2022/09/01 08:11:07;;;;;;;16.20;14.70;;;19.90;99.90;;;;;;5007353;28;20532;-66
2022/09/01 08:13:37;;;;;;;17.33;15.73;;;19.90;99.90;;;;;;5005243;28;20455;-66
2022/09/01 08:16:04;;;;;;;16.27;14.90;;;19.90;99.90;;;;;;5003671;28;20517;-66
2022/09/01 08:18:30;;;;;;;17.80;16.20;;;20.00;99.90;;;;;;5005808;28;20466;-65
2022/09/01 08:20:56;;;;;;;15.10;13.70;;;20.10;99.90;;;;;;5009147;28;20460;-67
2022/09/01 08:23:25;;;;;;;15.73;14.27;;;20.20;99.90;;;;;;5010622;28;20519;-66
2022/09/01 08:25:50;;;;;;;15.63;14.27;;;20.40;99.90;;;;;;5010131;28;20674;-64
2022/09/01 08:28:16;;;;;;;14.97;13.77;;;20.40;99.90;;;;;;5018765;28;20452;-65
2022/09/01 08:30:43;;;;;;;15.70;14.30;;;20.50;99.90;;;;;;5008906;28;20202;-65
2022/09/01 08:33:10;;;;;;;17.33;15.90;;;20.70;99.90;;;;;;5011670;28;20675;-65
2022/09/01 08:35:39;;;;;;;15.53;14.13;;;20.70;99.90;;;;;;5002983;28;20445;-65
2022/09/01 08:38:04;;;;;;;14.23;12.93;;;20.90;99.90;;;;;;5008087;28;20548;-66
2022/09/01 08:40:30;;;;;;;14.30;13.00;;;20.90;99.90;;;;;;5007704;28;21032;-65
2022/09/01 08:43:23;;;;;;;13.73;12.63;;;21.10;99.90;;;;;;5004280;28;20179;-65
2022/09/01 08:45:53;;;;;;;14.43;13.23;;;21.00;99.90;;;;;;5008996;28;20218;-65
2022/09/01 08:48:24;;;;;;;12.70;11.57;;;21.10;99.90;;;;;;5007850;28;20959;-64
2022/09/01 08:51:11;;;;;;;12.73;11.63;;;21.20;99.90;;;;;;5008996;28;20481;-64
2022/09/01 08:53:50;;;;;;;14.23;13.03;;;21.10;99.90;;;;;;5010466;28;20433;-65
2022/09/01 08:56:18;;;;;;;12.00;10.80;;;21.10;99.90;;;;;;5011314;28;20442;-65
2022/09/01 08:58:44;;;;;;;12.27;11.37;;;21.00;99.90;;;;;;5008355;28;20457;-65
2022/09/01 09:01:41;;;;;;;13.90;12.60;;;21.10;99.90;;;;;;5009066;28;20512;-65
2022/09/01 09:04:22;;;;;;;11.10;10.20;;;21.20;99.90;;;;;;5009448;28;20434;-65
2022/09/01 09:06:54;;;;;;;12.77;11.57;;;21.50;99.90;;;;;;5010988;28;20521;-65
2022/09/01 09:09:20;;;;;;;11.20;10.30;;;21.60;99.90;;;;;;5007229;28;20433;-64
2022/09/01 09:12:09;;;;;;;12.20;11.20;;;21.60;99.90;;;;;;5010477;28;20926;-65
2022/09/01 09:15:06;;;;;;;11.90;10.80;;;21.60;99.90;;;;;;5011777;28;20175;-64
2022/09/01 09:17:36;;;;;;;10.53;9.70;;;21.70;99.90;;;;;;5011040;28;20487;-64
2022/09/01 09:20:03;;;;;;;11.10;10.10;;;22.30;99.90;;;;;;5007431;28;20441;-65
2022/09/01 09:22:30;;;;;;;11.40;10.50;;;22.80;99.90;;;;;;5009685;28;20440;-65
2022/09/01 09:25:17;;;;;;;11.40;10.47;;;22.80;99.90;;;;;;5006297;28;20584;-65
2022/09/01 09:27:46;;;;;;;9.13;8.43;;;22.30;99.90;;;;;;5007137;28;20434;-64
2022/09/01 09:30:25;;;;;;;8.27;7.63;;;22.20;99.90;;;;;;5007766;28;20449;-65
2022/09/01 09:33:03;;;;;;;8.30;7.60;;;22.80;99.90;;;;;;5008209;28;20998;-65
2022/09/01 09:35:30;;;;;;;8.17;7.50;;;23.60;99.90;;;;;;5010040;28;20863;-64
2022/09/01 09:38:27;;;;;;;8.60;7.90;;;24.20;99.90;;;;;;5008991;28;20452;-65
2022/09/01 09:41:15;;;;;;;9.03;8.23;;;25.20;99.90;;;;;;5009438;28;20479;-65
2022/09/01 09:43:58;;;;;;;8.23;7.57;;;25.80;99.90;;;;;;4999945;28;20430;-65
2022/09/01 09:46:41;;;;;;;8.93;8.30;;;25.90;99.90;;;;;;5007285;28;20437;-65
2022/09/01 09:49:26;;;;;;;7.80;7.13;;;25.80;99.90;;;;;;5011375;28;20584;-65
2022/09/01 09:52:10;;;;;;;8.83;8.13;;;25.80;99.90;;;;;;5032281;23;20997;-65
2022/09/01 09:55:00;;;;;;;8.97;8.37;;;25.40;99.90;;;;;;5008617;28;20609;-65
2022/09/01 09:57:26;;;;;;;8.70;8.03;;;25.20;99.90;;;;;;5011752;28;20422;-65
2022/09/01 09:59:54;;;;;;;8.87;8.10;;;24.90;99.90;;;;;;5010930;28;20863;-64
2022/09/01 10:02:43;;;;;;;8.17;7.57;;;24.40;99.90;;;;;;5011711;28;20938;-67
2022/09/01 10:05:39;;;;;;;7.53;7.00;;;24.10;99.90;;;;;;5012096;28;20795;-67
2022/09/01 10:08:11;;;;;;;8.77;8.17;;;24.20;99.90;;;;;;5011666;28;20425;-66
2022/09/01 10:10:46;;;;;;;8.90;8.10;;;24.30;99.90;;;;;;5010350;28;20453;-67
2022/09/01 10:13:22;;;;;;;8.67;8.07;;;23.60;99.90;;;;;;5011619;28;20417;-67
2022/09/01 10:15:51;;;;;;;8.43;7.83;;;23.40;99.90;;;;;;5011839;28;20480;-66
2022/09/01 10:18:20;;;;;;;7.67;7.03;;;23.50;99.90;;;;;;5010888;28;20485;-67
2022/09/01 10:20:58;;;;;;;7.60;7.00;;;23.10;99.90;;;;;;5011539;28;20445;-67
2022/09/01 10:23:26;;;;;;;9.70;8.83;;;23.00;99.90;;;;;;5011684;28;20414;-67
2022/09/01 10:25:58;;;;;;;9.00;8.20;;;23.40;99.90;;;;;;5011308;28;20450;-67
2022/09/01 10:28:25;;;;;;;6.43;5.93;;;23.80;99.90;;;;;;5010866;28;20429;-67
2022/09/01 10:30:52;;;;;;;6.10;5.60;;;24.00;99.90;;;;;;5011560;28;20491;-66
2022/09/01 10:33:20;;;;;;;7.37;6.80;;;23.80;99.90;;;;;;5011603;28;20418;-67
2022/09/01 10:35:51;;;;;;;6.10;5.60;;;23.40;99.90;;;;;;5011430;28;20950;-66
2022/09/01 10:38:24;;;;;;;6.13;5.63;;;24.00;99.90;;;;;;5010633;28;20457;-67
2022/09/01 10:41:06;;;;;;;5.90;5.50;;;24.60;99.90;;;;;;5011871;28;20445;-64
2022/09/01 10:43:42;;;;;;;5.43;4.93;;;25.30;99.90;;;;;;5015177;28;20409;-65
2022/09/01 10:46:29;;;;;;;5.00;4.60;;;25.80;99.90;;;;;;5015105;28;20500;-65
2022/09/01 10:48:58;;;;;;;5.33;4.87;;;27.60;99.30;;;;;;5014193;28;20444;-65
2022/09/01 10:51:24;;;;;;;5.37;4.97;;;28.10;96.10;;;;;;5014863;28;20461;-64
2022/09/01 10:53:57;;;;;;;4.33;4.10;;;28.90;95.70;;;;;;5014772;28;20441;-65
2022/09/01 10:56:26;;;;;;;5.37;4.97;;;29.80;93.40;;;;;;5014890;28;20175;-65
2022/09/01 10:58:58;;;;;;;5.60;5.20;;;29.80;90.70;;;;;;5014169;28;21031;-65
2022/09/01 11:01:42;;;;;;;5.43;5.13;;;30.10;90.10;;;;;;5014700;28;20445;-65
2022/09/01 11:04:15;;;;;;;5.30;5.00;;;30.10;90.20;;;;;;5013483;28;20432;-64
2022/09/01 11:06:40;;;;;;;5.40;4.97;;;30.10;87.60;;;;;;5014903;28;20915;-65
2022/09/01 11:09:20;;;;;;;4.90;4.60;;;29.20;89.80;;;;;;5014012;28;20420;-64
2022/09/01 11:11:54;;;;;;;5.07;4.73;;;28.90;90.20;;;;;;5014501;28;20589;-64
2022/09/01 11:14:25;;;;;;;7.03;4.57;;;28.60;91.00;;;;;;5014611;28;20993;-65
2022/09/01 11:17:09;;;;;;;4.87;4.40;;;28.40;90.80;;;;;;5014548;28;20949;-65
2022/09/01 11:19:57;;;;;;;5.17;4.87;;;29.30;90.40;;;;;;5013701;28;20823;-65
2022/09/01 11:22:40;;;;;;;4.73;4.00;;;29.50;88.60;;;;;;5014359;28;20429;-65
2022/09/01 11:25:08;;;;;;;4.90;4.53;;;30.10;86.00;;;;;;5014437;28;20406;-64
2022/09/01 11:27:49;;;;;;;5.17;4.87;;;30.40;81.50;;;;;;5014470;28;20414;-65
2022/09/01 11:30:40;;;;;;;4.80;4.07;;;29.10;83.70;;;;;;5013471;28;20831;-65
2022/09/01 11:33:39;;;;;;;4.90;4.50;;;29.80;85.20;;;;;;5014260;28;20417;-65
2022/09/01 11:36:14;;;;;;;4.73;4.47;;;30.10;82.50;;;;;;5014068;28;20448;-65
2022/09/01 11:38:49;;;;;;;4.20;4.00;;;29.90;82.70;;;;;;5013299;28;20453;-65
2022/09/01 11:41:32;;;;;;;4.63;4.33;;;29.70;82.70;;;;;;5013942;28;20533;-64
2022/09/01 11:43:59;;;;;;;4.40;4.10;;;29.90;81.70;;;;;;5014012;28;20437;-64
2022/09/01 11:46:31;;;;;;;5.23;4.93;;;29.50;81.10;;;;;;5014076;28;20450;-65
2022/09/01 11:49:00;;;;;;;4.80;4.50;;;28.70;82.10;;;;;;5013239;28;20795;-67
2022/09/01 11:51:25;;;;;;;8.50;7.80;;;27.60;86.90;;;;;;5013746;28;20835;-65
2022/09/01 11:53:57;;;;;;;5.10;4.77;;;29.00;86.60;;;;;;5013742;28;20425;-65
2022/09/01 11:56:26;;;;;;;5.60;5.20;;;32.00;78.00;;;;;;5013932;28;20167;-65
2022/09/01 11:58:52;;;;;;;5.33;4.93;;;32.80;72.90;;;;;;5013150;28;20460;-65
2022/09/01 12:01:29;;;;;;;5.77;5.37;;;31.80;74.40;;;;;;5000825;28;20447;-65
2022/09/01 12:03:55;;;;;;;6.00;5.67;;;32.20;72.30;;;;;;4994140;28;20182;-65
2022/09/01 12:06:24;;;;;;;5.80;5.30;;;31.40;73.10;;;;;;4981150;28;20431;-64
2022/09/01 12:08:59;;;;;;;4.03;3.83;;;30.40;74.40;;;;;;4998311;28;20188;-65
2022/09/01 12:11:30;;;;;;;4.10;3.90;;;29.90;77.30;;;;;;5000050;28;20461;-65
2022/09/01 12:14:03;;;;;;;6.20;5.80;;;30.70;73.90;;;;;;5002147;28;20449;-65
2022/09/01 12:16:33;;;;;;;5.17;4.77;;;30.50;73.50;;;;;;4987031;28;20529;-65
2022/09/01 12:18:59;;;;;;;5.57;5.20;;;29.70;74.60;;;;;;4990685;28;20824;-65
2022/09/01 12:21:26;;;;;;;4.43;4.13;;;32.50;72.30;;;;;;4996708;28;20458;-65
2022/09/01 12:23:53;;;;;;;4.90;4.07;;;35.10;62.50;;;;;;4986717;28;20175;-65
2022/09/01 12:26:29;;;;;;;4.07;3.83;;;36.10;58.70;;;;;;4989598;28;20475;-65
2022/09/01 12:28:55;;;;;;;5.83;5.43;;;37.10;56.00;;;;;;4990640;28;20476;-65
2022/09/01 12:31:24;;;;;;;5.17;4.87;;;36.40;55.40;;;;;;5000952;28;20466;-65
2022/09/01 12:33:51;;;;;;;4.90;4.60;;;37.00;55.00;;;;;;4996627;28;20966;-65
2022/09/01 12:36:20;;;;;;;4.13;3.90;;;38.30;52.70;;;;;;4995436;28;20450;-65
2022/09/01 12:38:46;;;;;;;4.00;3.70;;;39.20;49.90;;;;;;4988718;28;20494;-65
2022/09/01 12:41:36;;;;;;;4.10;3.80;;;39.70;48.00;;;;;;4986870;28;20486;-65
2022/09/01 12:44:36;;;;;;;4.60;4.30;;;40.00;46.30;;;;;;5002776;28;20194;-65
2022/09/01 12:47:32;;;;;;;4.67;4.37;;;37.60;46.40;;;;;;4999469;28;20443;-65
2022/09/01 12:49:58;;;;;;;4.53;4.33;;;36.10;49.30;;;;;;4995409;28;20429;-66
2022/09/01 12:52:26;;;;;;;4.73;4.43;;;34.70;49.80;;;;;;5001327;28;20473;-65
2022/09/01 12:54:58;;;;;;;3.93;3.70;;;33.80;51.50;;;;;;4996758;28;20450;-65